createdAt,value
2022-10-19T00:04:48.413Z,0
2022-10-19T00:09:47.904Z,0
2022-10-19T00:14:47.815Z,0
2022-10-19T00:35:04.006Z,0
2022-10-19T00:40:52.952Z,0
2022-10-19T00:44:57.839Z,0
2022-10-19T00:49:48.374Z,0
2022-10-19T00:54:48.536Z,0
2022-10-19T00:59:47.881Z,0
2022-10-19T01:04:47.881Z,0
2022-10-19T01:09:47.870Z,0
2022-10-19T01:14:47.939Z,0
2022-10-19T01:19:47.944Z,0
2022-10-19T01:29:47.904Z,0
2022-10-19T01:34:47.903Z,0
2022-10-19T01:39:49.197Z,0
2022-10-19T01:44:47.913Z,0
2022-10-19T01:49:47.893Z,0
2022-10-19T01:54:47.996Z,0
2022-10-19T01:59:47.912Z,0
2022-10-19T02:04:47.972Z,0
2022-10-19T02:09:47.955Z,0
2022-10-19T02:14:47.960Z,0
2022-10-19T02:19:47.914Z,0
2022-10-19T02:24:47.864Z,0
2022-10-19T02:29:47.870Z,0
2022-10-19T02:34:47.971Z,0
2022-10-19T02:39:47.940Z,0
2022-10-19T02:44:49.548Z,0
2022-10-19T02:49:47.998Z,0
2022-10-19T02:54:47.943Z,0
2022-10-19T02:59:49.803Z,0
2022-10-19T03:09:48.038Z,0
2022-10-19T03:14:48.238Z,0
2022-10-19T03:19:47.895Z,0
2022-10-19T03:24:47.931Z,0
2022-10-19T03:29:47.847Z,0
2022-10-19T03:34:47.853Z,0
2022-10-19T03:39:47.853Z,0
2022-10-19T03:44:47.873Z,0
2022-10-19T03:49:47.843Z,0
2022-10-19T03:54:47.900Z,0
2022-10-19T03:59:47.910Z,0
2022-10-19T04:04:47.834Z,0
2022-10-19T04:09:47.985Z,0
2022-10-19T04:14:57.101Z,0
2022-10-19T04:19:47.867Z,0
2022-10-19T04:24:47.872Z,0
2022-10-19T04:29:47.875Z,0
2022-10-19T04:34:47.886Z,0
2022-10-19T04:39:48.158Z,0
2022-10-19T04:44:47.957Z,0
2022-10-19T04:49:47.895Z,0
2022-10-19T04:54:47.898Z,0
2022-10-19T05:00:18.799Z,0
2022-10-19T05:04:47.863Z,0
2022-10-19T05:09:47.864Z,0
2022-10-19T05:14:47.861Z,0
2022-10-19T05:19:47.948Z,256
2022-10-19T05:24:47.874Z,0
2022-10-19T05:29:47.900Z,258
2022-10-19T05:34:48.064Z,263
2022-10-19T05:39:47.887Z,266
2022-10-19T05:44:47.862Z,267
2022-10-19T05:49:47.860Z,276
2022-10-19T05:54:48.320Z,286
2022-10-19T05:59:47.898Z,293
2022-10-19T06:04:47.882Z,300
2022-10-19T06:09:47.916Z,318
2022-10-19T06:14:47.912Z,357
2022-10-19T06:19:47.933Z,324
2022-10-19T06:24:47.909Z,350
2022-10-19T06:29:47.905Z,371
2022-10-19T06:34:47.869Z,355
2022-10-19T06:39:47.907Z,359
2022-10-19T06:44:47.885Z,404
2022-10-19T06:49:47.939Z,394
2022-10-19T06:54:47.947Z,435
2022-10-19T06:59:49.059Z,415
2022-10-19T07:04:47.890Z,444
2022-10-19T07:09:47.964Z,468
2022-10-19T07:14:47.889Z,455
2022-10-19T07:19:48.045Z,498
2022-10-19T07:24:47.915Z,479
2022-10-19T07:29:47.930Z,513
2022-10-19T07:34:47.914Z,570
2022-10-19T07:39:47.924Z,673
2022-10-19T07:44:47.897Z,832
2022-10-19T07:49:47.917Z,756
2022-10-19T07:54:47.901Z,712
2022-10-19T07:59:47.901Z,705
2022-10-19T08:05:01.000Z,674
2022-10-19T08:09:53.809Z,577
2022-10-19T08:14:47.917Z,602
2022-10-19T08:19:47.887Z,594
2022-10-19T08:24:47.894Z,590
2022-10-19T08:29:47.912Z,650
2022-10-19T08:34:47.887Z,694
2022-10-19T08:39:47.932Z,741
2022-10-19T08:44:47.928Z,711
2022-10-19T08:49:47.960Z,669
2022-10-19T08:54:48.067Z,881
2022-10-19T08:59:51.175Z,804
2022-10-19T09:04:47.967Z,759
2022-10-19T09:09:47.919Z,783
2022-10-19T09:14:47.933Z,605
2022-10-19T09:19:47.958Z,613
2022-10-19T09:24:47.942Z,441
2022-10-19T09:29:47.905Z,418
2022-10-19T09:34:47.993Z,544
2022-10-19T09:39:50.433Z,617
2022-10-19T09:54:48.014Z,767
2022-10-19T09:59:49.285Z,700
2022-10-19T10:04:47.912Z,625
2022-10-19T10:09:47.961Z,657
2022-10-19T10:14:47.893Z,726
2022-10-19T10:19:47.927Z,699
2022-10-19T10:24:48.014Z,629
2022-10-19T10:29:47.979Z,625
2022-10-19T10:34:52.151Z,682
2022-10-19T10:39:49.019Z,585
2022-10-19T10:44:47.938Z,612
2022-10-19T10:49:47.979Z,523
2022-10-19T10:54:47.977Z,600
2022-10-19T10:59:47.939Z,575
2022-10-19T11:04:49.920Z,625
2022-10-19T11:09:47.957Z,641
2022-10-19T11:14:47.927Z,594
2022-10-19T11:19:47.928Z,1112
2022-10-19T11:24:48.604Z,1176
2022-10-19T11:29:47.958Z,902
2022-10-19T11:34:47.892Z,944
2022-10-19T11:39:47.970Z,1244
2022-10-19T11:44:47.938Z,798
2022-10-19T11:49:47.940Z,1502
2022-10-19T11:54:48.021Z,1012
2022-10-19T11:59:48.028Z,844
2022-10-19T12:04:47.967Z,729
2022-10-19T12:09:47.945Z,734
2022-10-19T12:14:47.951Z,714
2022-10-19T12:19:48.042Z,743
2022-10-19T12:24:47.988Z,781
2022-10-19T12:29:48.001Z,759
2022-10-19T12:34:47.972Z,823
2022-10-19T12:39:47.984Z,1058
2022-10-19T12:44:47.975Z,884
2022-10-19T12:49:48.003Z,692
2022-10-19T12:54:48.084Z,908
2022-10-19T12:59:48.118Z,902
2022-10-19T13:04:47.963Z,528
2022-10-19T13:09:47.970Z,446
2022-10-19T13:14:48.120Z,618
2022-10-19T13:19:48.171Z,683
2022-10-19T13:24:48.091Z,674
2022-10-19T13:29:47.955Z,670
2022-10-19T13:34:48.067Z,665
2022-10-19T13:39:48.083Z,647
2022-10-19T13:44:48.042Z,691
2022-10-19T13:49:48.002Z,725
2022-10-19T13:54:47.982Z,696
2022-10-19T13:59:48.027Z,652
2022-10-19T14:04:47.993Z,516
2022-10-19T14:09:48.072Z,467
2022-10-19T14:14:48.039Z,574
2022-10-19T14:19:48.080Z,632
2022-10-19T14:24:48.080Z,649
2022-10-19T14:29:48.010Z,656
2022-10-19T14:34:48.000Z,626
2022-10-19T14:39:48.012Z,559
2022-10-19T14:44:48.055Z,626
2022-10-19T14:49:47.983Z,541
2022-10-19T14:54:48.057Z,571
2022-10-19T14:59:47.975Z,515
2022-10-19T15:04:48.028Z,485
2022-10-19T15:09:49.999Z,422
2022-10-19T15:14:48.043Z,405
2022-10-19T15:19:48.049Z,398
2022-10-19T15:24:48.054Z,392
2022-10-19T15:29:48.016Z,372
2022-10-19T15:34:48.035Z,372
2022-10-19T15:39:48.064Z,361
2022-10-19T15:44:48.083Z,338
2022-10-19T15:49:48.445Z,325
2022-10-19T15:54:50.756Z,314
2022-10-19T15:59:48.039Z,296
2022-10-19T16:04:48.042Z,282
2022-10-19T16:09:48.053Z,271
2022-10-19T16:14:48.086Z,261
2022-10-19T16:19:48.045Z,259
2022-10-19T16:24:48.069Z,257
2022-10-19T16:29:48.099Z,257
2022-10-19T16:34:48.155Z,0
2022-10-19T16:39:48.037Z,0
2022-10-19T16:44:48.097Z,0
2022-10-19T16:49:48.094Z,0
2022-10-19T16:54:49.449Z,0
2022-10-19T16:59:49.112Z,0
2022-10-19T17:04:49.601Z,0
2022-10-19T17:09:50.982Z,0
2022-10-19T17:14:49.060Z,0
2022-10-19T17:19:49.026Z,0
2022-10-19T17:24:49.027Z,0
2022-10-19T17:29:49.044Z,0
2022-10-19T17:34:49.045Z,0
2022-10-19T17:39:49.031Z,0
2022-10-19T17:44:49.023Z,0
2022-10-19T17:49:49.004Z,0
2022-10-19T17:55:10.984Z,0
2022-10-19T17:59:52.738Z,0
2022-10-19T18:04:49.125Z,0
2022-10-19T18:09:49.009Z,0
2022-10-19T18:14:49.099Z,0
2022-10-19T18:19:49.059Z,0
2022-10-19T18:24:51.861Z,0
2022-10-19T18:29:49.208Z,0
2022-10-19T18:34:49.112Z,0
2022-10-19T18:39:49.055Z,0
2022-10-19T18:44:49.169Z,0
2022-10-19T18:49:49.754Z,0
2022-10-19T18:54:49.103Z,0
2022-10-19T18:59:49.035Z,0
2022-10-19T19:04:49.044Z,0
2022-10-19T19:09:49.107Z,0
2022-10-19T19:14:49.050Z,0
2022-10-19T19:19:49.050Z,0
2022-10-19T19:24:49.254Z,0
2022-10-19T19:29:49.106Z,0
2022-10-19T19:34:52.460Z,0
2022-10-19T19:39:49.148Z,0
2022-10-19T19:44:49.065Z,0
2022-10-19T19:49:49.242Z,0
2022-10-19T19:54:49.156Z,0
2022-10-19T19:59:49.162Z,0
2022-10-19T20:04:49.116Z,0
2022-10-19T20:09:49.130Z,0
2022-10-19T20:14:49.370Z,0
2022-10-19T20:19:49.132Z,0
2022-10-19T20:25:41.648Z,0
2022-10-19T20:29:49.214Z,0
2022-10-19T20:34:49.168Z,0
2022-10-19T20:39:50.084Z,0
2022-10-19T20:44:50.365Z,0
2022-10-19T20:49:50.070Z,0
2022-10-19T20:54:50.079Z,0
2022-10-19T20:59:50.105Z,0
2022-10-19T21:04:50.802Z,0
2022-10-19T21:09:50.393Z,0
2022-10-19T21:14:50.138Z,0
2022-10-19T21:19:50.402Z,0
2022-10-19T21:24:50.069Z,0
2022-10-19T21:29:50.754Z,0
2022-10-19T21:34:50.822Z,0
2022-10-19T21:39:50.191Z,0
2022-10-19T21:44:53.956Z,0
2022-10-19T21:49:50.111Z,0
2022-10-19T21:54:50.074Z,0
2022-10-19T21:59:50.215Z,0
2022-10-19T22:04:50.175Z,0
2022-10-19T22:09:50.135Z,0
2022-10-19T22:14:50.162Z,0
2022-10-19T22:19:50.127Z,0
2022-10-19T22:24:50.123Z,0
2022-10-19T22:29:50.151Z,0
2022-10-19T22:34:50.177Z,0
2022-10-19T22:39:50.303Z,0
2022-10-19T22:44:50.156Z,0
2022-10-19T22:49:50.286Z,0
2022-10-19T22:54:50.204Z,0
2022-10-19T22:59:56.408Z,0
2022-10-19T23:04:53.361Z,0
2022-10-19T23:09:50.675Z,0
2022-10-19T23:14:50.668Z,0
2022-10-19T23:19:50.231Z,0
2022-10-19T23:24:50.138Z,0
2022-10-19T23:29:50.099Z,0
2022-10-19T23:34:50.152Z,0
2022-10-19T23:39:50.159Z,0
2022-10-19T23:44:50.183Z,0
2022-10-19T23:49:50.146Z,0
2022-10-19T23:54:50.174Z,0
2022-10-19T23:59:50.217Z,0
